createdAt,value
2023-03-01T00:02:19.850Z,-3.60
2023-03-01T00:04:47.073Z,-3.60
2023-03-01T00:07:14.424Z,-3.60
2023-03-01T00:09:41.612Z,-3.80
2023-03-01T00:12:08.783Z,-3.80
2023-03-01T00:14:37.174Z,-3.70
2023-03-01T00:19:33.661Z,-3.80
2023-03-01T00:24:28.379Z,-3.70
2023-03-01T00:26:56.974Z,-3.80
2023-03-01T00:29:25.747Z,-3.60
2023-03-01T00:31:53.439Z,-3.50
2023-03-01T00:34:20.620Z,-3.70
2023-03-01T00:36:47.830Z,-3.70
2023-03-01T00:39:16.290Z,-3.70
2023-03-01T00:41:44.540Z,-3.70
2023-03-01T00:44:12.574Z,-3.90
2023-03-01T00:46:40.179Z,-3.60
2023-03-01T00:49:07.405Z,-3.70
2023-03-01T00:51:34.862Z,-3.70
2023-03-01T00:54:03.551Z,-3.90
2023-03-01T00:56:31.885Z,-3.80
2023-03-01T00:58:59.540Z,-4.00
2023-03-01T01:01:32.383Z,-3.80
2023-03-01T01:04:08.661Z,-3.70
2023-03-01T01:06:38.650Z,-3.80
2023-03-01T01:09:08.226Z,-3.80
2023-03-01T01:11:37.459Z,-3.90
2023-03-01T01:14:04.855Z,-3.90
2023-03-01T01:16:32.330Z,-4.00
2023-03-01T01:18:59.894Z,-3.80
2023-03-01T01:21:28.573Z,-3.70
2023-03-01T01:23:56.013Z,-3.80
2023-03-01T01:26:27.224Z,-3.80
2023-03-01T01:28:55.365Z,-3.90
2023-03-01T01:31:24.833Z,-3.90
2023-03-01T01:33:53.429Z,-3.90
2023-03-01T01:36:21.251Z,-3.90
2023-03-01T01:38:48.853Z,-3.90
2023-03-01T01:41:17.158Z,-4.00
2023-03-01T01:43:47.372Z,-4.00
2023-03-01T01:46:32.403Z,-4.10
2023-03-01T01:49:17.555Z,-4.20
2023-03-01T01:51:49.357Z,-4.10
2023-03-01T01:54:23.801Z,-4.20
2023-03-01T01:56:56.432Z,-4.20
2023-03-01T01:59:26.261Z,-4.10
2023-03-01T02:01:54.636Z,-4.20
2023-03-01T02:04:22.862Z,-4.30
2023-03-01T02:06:57.922Z,-4.20
2023-03-01T02:09:25.906Z,-4.20
2023-03-01T02:11:54.854Z,-4.30
2023-03-01T02:14:22.041Z,-4.30
2023-03-01T02:16:49.768Z,-4.30
2023-03-01T02:20:08.071Z,-4.30
2023-03-01T02:22:38.200Z,-4.30
2023-03-01T02:25:20.322Z,-4.30
2023-03-01T02:28:14.957Z,-4.40
2023-03-01T02:31:03.770Z,-4.40
2023-03-01T02:33:34.032Z,-4.40
2023-03-01T02:36:05.929Z,-4.30
2023-03-01T02:38:33.812Z,-4.40
2023-03-01T02:41:02.794Z,-4.50
2023-03-01T02:43:33.901Z,-4.60
2023-03-01T02:46:06.503Z,-4.50
2023-03-01T02:49:03.064Z,-4.60
2023-03-01T02:51:32.929Z,-4.60
2023-03-01T02:54:28.863Z,-4.60
2023-03-01T02:56:57.178Z,-4.60
2023-03-01T02:59:28.837Z,-4.70
2023-03-01T03:01:56.038Z,-4.70
2023-03-01T03:04:23.152Z,-0.90
2023-03-01T03:06:51.825Z,-4.70
2023-03-01T03:09:22.096Z,-4.80
2023-03-01T03:11:49.614Z,-4.80
2023-03-01T03:14:18.150Z,-4.80
2023-03-01T03:16:48.353Z,-4.80
2023-03-01T03:19:15.972Z,-4.80
2023-03-01T03:24:10.901Z,-4.90
2023-03-01T03:26:38.428Z,-5.00
2023-03-01T03:29:05.940Z,-4.90
2023-03-01T03:31:33.085Z,-4.90
2023-03-01T03:34:00.168Z,-4.80
2023-03-01T03:38:55.168Z,-5.00
2023-03-01T03:41:22.309Z,-5.00
2023-03-01T03:43:50.138Z,-4.90
2023-03-01T03:46:18.196Z,-4.90
2023-03-01T03:48:46.700Z,-5.00
2023-03-01T03:51:18.165Z,-5.00
2023-03-01T03:53:45.925Z,-5.00
2023-03-01T03:56:13.421Z,-5.10
2023-03-01T03:58:40.631Z,-5.00
2023-03-01T04:01:07.950Z,-5.00
2023-03-01T04:03:36.267Z,-5.10
2023-03-01T04:06:05.123Z,-5.10
2023-03-01T04:08:32.539Z,-4.40
2023-03-01T04:11:25.243Z,-5.20
2023-03-01T04:13:54.367Z,-5.20
2023-03-01T04:16:21.856Z,-5.20
2023-03-01T04:18:49.429Z,-5.20
2023-03-01T04:21:16.678Z,-5.20
2023-03-01T04:23:43.832Z,-5.20
2023-03-01T04:26:10.915Z,-5.20
2023-03-01T04:28:47.265Z,-5.20
2023-03-01T04:31:18.687Z,-5.10
2023-03-01T04:33:48.481Z,-5.20
2023-03-01T04:36:17.708Z,-5.10
2023-03-01T04:38:49.024Z,-5.10
2023-03-01T04:41:18.849Z,-5.10
2023-03-01T04:43:46.551Z,-5.00
2023-03-01T04:46:16.137Z,-5.00
2023-03-01T04:48:44.954Z,-4.90
2023-03-01T04:51:15.844Z,-4.80
2023-03-01T04:53:44.145Z,-4.80
2023-03-01T04:56:11.377Z,-4.50
2023-03-01T04:58:38.517Z,-3.90
2023-03-01T05:01:20.529Z,-3.30
2023-03-01T05:03:52.566Z,-2.90
2023-03-01T05:06:21.444Z,-3.70
2023-03-01T05:08:48.613Z,-3.80
2023-03-01T05:11:15.795Z,-3.20
2023-03-01T05:13:43.102Z,-3.90
2023-03-01T05:16:12.721Z,-4.20
2023-03-01T05:18:41.225Z,-3.90
2023-03-01T05:21:11.804Z,-3.00
2023-03-01T05:23:39.575Z,-3.70
2023-03-01T05:26:16.153Z,-3.90
2023-03-01T05:28:49.949Z,-4.00
2023-03-01T05:31:17.132Z,-3.60
2023-03-01T05:33:44.704Z,-3.90
2023-03-01T05:36:11.903Z,-3.80
2023-03-01T05:38:39.198Z,-3.70
2023-03-01T05:41:06.409Z,-4.40
2023-03-01T05:43:35.115Z,-4.30
2023-03-01T05:46:02.702Z,-4.10
2023-03-01T05:48:29.864Z,-4.20
2023-03-01T05:51:01.518Z,-4.40
2023-03-01T05:53:28.889Z,-4.10
2023-03-01T05:55:56.039Z,-4.00
2023-03-01T06:00:52.854Z,-4.10
2023-03-01T06:03:21.185Z,-4.30
2023-03-01T06:05:48.305Z,-4.10
2023-03-01T06:08:15.451Z,-3.90
2023-03-01T06:10:42.626Z,-3.90
2023-03-01T06:13:09.739Z,-4.10
2023-03-01T06:15:36.833Z,-4.30
2023-03-01T06:18:04.131Z,-4.10
2023-03-01T06:20:31.400Z,-4.30
2023-03-01T06:22:58.986Z,-3.90
2023-03-01T06:25:27.644Z,-4.10
2023-03-01T06:27:55.243Z,-3.90
2023-03-01T06:30:24.157Z,-3.80
2023-03-01T06:32:51.668Z,-3.60
2023-03-01T06:35:20.257Z,-3.50
2023-03-01T06:37:49.120Z,-3.40
2023-03-01T06:40:17.270Z,-3.60
2023-03-01T06:42:50.863Z,-3.70
2023-03-01T06:45:20.503Z,-3.90
2023-03-01T06:47:47.888Z,-3.40
2023-03-01T06:50:16.095Z,-3.30
2023-03-01T06:55:14.249Z,-3.30
2023-03-01T06:57:41.728Z,-3.20
2023-03-01T07:00:10.196Z,-3.00
2023-03-01T07:02:37.276Z,-2.90
2023-03-01T07:05:04.666Z,-2.90
2023-03-01T07:07:31.902Z,-2.90
2023-03-01T07:09:59.214Z,-2.90
2023-03-01T07:12:26.619Z,-3.00
2023-03-01T07:14:53.704Z,-2.90
2023-03-01T07:17:20.804Z,-2.00
2023-03-01T07:19:47.947Z,-3.00
2023-03-01T07:22:15.315Z,-2.70
2023-03-01T07:24:43.181Z,-2.30
2023-03-01T07:27:11.408Z,-2.50
2023-03-01T07:29:38.642Z,-2.80
2023-03-01T07:32:07.056Z,-2.70
2023-03-01T07:34:34.485Z,-2.10
2023-03-01T07:37:01.583Z,-2.60
2023-03-01T07:39:28.797Z,-2.70
2023-03-01T07:41:55.984Z,-2.50
2023-03-01T07:44:23.533Z,-2.70
2023-03-01T07:46:50.851Z,-2.80
2023-03-01T07:49:17.988Z,-2.90
2023-03-01T07:51:45.159Z,-2.90
2023-03-01T07:54:12.493Z,-2.80
2023-03-01T07:56:39.720Z,-2.50
2023-03-01T07:59:09.937Z,-2.70
2023-03-01T08:01:37.280Z,-2.60
2023-03-01T08:04:08.203Z,-2.50
2023-03-01T08:06:36.793Z,-2.60
2023-03-01T08:09:04.228Z,-1.00
2023-03-01T08:11:31.514Z,2.10
2023-03-01T08:13:58.803Z,2.90
2023-03-01T08:16:26.259Z,2.20
2023-03-01T08:18:53.707Z,3.80
2023-03-01T08:21:20.837Z,4.00
2023-03-01T08:23:47.912Z,4.20
2023-03-01T08:26:18.211Z,3.80
2023-03-01T08:28:45.758Z,1.30
2023-03-01T08:31:23.019Z,-0.60
2023-03-01T08:33:56.199Z,-1.70
2023-03-01T08:36:27.249Z,-1.80
2023-03-01T08:38:54.628Z,-2.00
2023-03-01T08:41:21.791Z,-1.50
2023-03-01T08:43:48.924Z,-2.50
2023-03-01T08:46:16.424Z,-2.50
2023-03-01T08:48:44.352Z,-2.20
2023-03-01T08:51:13.812Z,-2.00
2023-03-01T08:53:41.808Z,-1.90
2023-03-01T08:56:09.766Z,-1.70
2023-03-01T08:58:37.890Z,-1.60
2023-03-01T09:01:12.670Z,-1.50
2023-03-01T09:03:40.076Z,-1.70
2023-03-01T09:06:08.713Z,-1.40
2023-03-01T09:08:37.283Z,-1.40
2023-03-01T09:11:06.488Z,1.00
2023-03-01T09:13:58.550Z,3.20
2023-03-01T09:16:25.966Z,1.60
2023-03-01T09:18:55.054Z,0.60
2023-03-01T09:21:38.616Z,0.70
2023-03-01T09:24:08.111Z,2.60
2023-03-01T09:26:35.358Z,1.60
2023-03-01T09:29:02.596Z,1.60
2023-03-01T09:31:30.305Z,1.00
2023-03-01T09:33:57.412Z,1.80
2023-03-01T09:36:29.051Z,0.90
2023-03-01T09:38:56.586Z,-0.40
2023-03-01T09:42:00.923Z,-0.30
2023-03-01T09:44:39.696Z,-0.50
2023-03-01T09:47:18.944Z,-0.90
2023-03-01T09:49:51.896Z,-0.80
2023-03-01T09:52:36.020Z,-0.50
2023-03-01T09:55:11.738Z,-0.40
2023-03-01T09:58:02.865Z,-0.40
2023-03-01T10:00:48.527Z,-0.50
2023-03-01T10:03:45.413Z,-1.30
2023-03-01T10:06:34.388Z,-0.90
2023-03-01T10:09:13.033Z,-0.50
2023-03-01T10:11:46.433Z,-0.60
2023-03-01T10:14:55.103Z,-0.10
2023-03-01T10:17:33.571Z,0.40
2023-03-01T10:20:16.654Z,0.30
2023-03-01T10:22:47.943Z,0.20
2023-03-01T10:25:18.689Z,1.00
2023-03-01T10:27:57.859Z,0.90
2023-03-01T10:30:43.304Z,0.70
2023-03-01T10:33:28.120Z,0.20
2023-03-01T10:35:56.232Z,-0.30
2023-03-01T10:38:24.265Z,0.50
2023-03-01T10:41:01.042Z,0.60
2023-03-01T10:43:44.148Z,3.40
2023-03-01T10:46:34.210Z,1.60
2023-03-01T10:49:14.250Z,1.50
2023-03-01T10:51:43.768Z,6.20
2023-03-01T10:54:33.009Z,3.60
2023-03-01T10:57:03.778Z,1.00
2023-03-01T10:59:37.682Z,2.30
2023-03-01T11:02:23.421Z,-0.20
2023-03-01T11:05:14.839Z,-0.90
2023-03-01T11:07:52.854Z,5.10
2023-03-01T11:10:32.690Z,0.40
2023-03-01T11:13:18.599Z,-0.20
2023-03-01T11:16:04.890Z,0.30
2023-03-01T11:18:46.312Z,1.80
2023-03-01T11:21:17.513Z,-0.30
2023-03-01T11:23:48.439Z,0.10
2023-03-01T11:26:18.721Z,-0.60
2023-03-01T11:28:53.132Z,1.60
2023-03-01T11:31:22.650Z,2.00
2023-03-01T11:34:08.514Z,6.00
2023-03-01T11:36:56.609Z,10.60
2023-03-01T11:40:01.344Z,9.40
2023-03-01T11:42:44.314Z,11.60
2023-03-01T11:45:14.361Z,9.20
2023-03-01T11:48:01.046Z,11.80
2023-03-01T11:50:42.208Z,11.80
2023-03-01T11:53:10.042Z,11.50
2023-03-01T11:55:56.381Z,6.20
2023-03-01T11:58:42.817Z,10.30
2023-03-01T12:01:16.597Z,10.80
2023-03-01T12:04:09.707Z,5.50
2023-03-01T12:06:43.194Z,3.10
2023-03-01T12:09:19.545Z,3.60
2023-03-01T12:12:11.821Z,2.60
2023-03-01T12:14:39.559Z,1.50
2023-03-01T12:17:34.330Z,3.20
2023-03-01T12:20:23.251Z,7.00
2023-03-01T12:23:20.637Z,6.30
2023-03-01T12:25:57.521Z,6.60
2023-03-01T12:28:53.322Z,2.70
2023-03-01T12:32:02.375Z,2.00
2023-03-01T12:34:35.940Z,2.40
2023-03-01T12:37:58.067Z,2.10
2023-03-01T12:40:34.883Z,1.90
2023-03-01T12:43:29.211Z,2.60
2023-03-01T12:46:03.786Z,1.60
2023-03-01T12:49:14.691Z,1.80
2023-03-01T12:51:58.690Z,6.80
2023-03-01T12:54:36.883Z,5.20
2023-03-01T12:57:23.927Z,5.70
2023-03-01T13:00:19.114Z,8.40
2023-03-01T13:03:30.908Z,3.60
2023-03-01T13:06:13.604Z,1.90
2023-03-01T13:09:01.615Z,2.80
2023-03-01T13:11:29.539Z,1.50
2023-03-01T13:14:22.486Z,0.70
2023-03-01T13:16:52.038Z,0.50
2023-03-01T13:19:25.153Z,0.00
2023-03-01T13:21:55.984Z,-0.30
2023-03-01T13:24:28.040Z,-0.10
2023-03-01T13:27:30.624Z,0.10
2023-03-01T13:30:08.429Z,-0.10
2023-03-01T13:32:45.144Z,0.20
2023-03-01T13:35:16.336Z,0.10
2023-03-01T13:37:45.610Z,0.00
2023-03-01T13:40:23.768Z,-0.30
2023-03-01T13:43:04.828Z,-0.20
2023-03-01T13:45:44.599Z,-0.40
2023-03-01T13:48:26.173Z,-0.70
2023-03-01T13:50:59.255Z,-0.80
2023-03-01T13:53:30.960Z,-0.70
2023-03-01T13:56:21.544Z,-0.50
2023-03-01T13:59:00.006Z,-0.80
2023-03-01T14:01:33.909Z,-1.00
2023-03-01T14:04:03.651Z,-0.50
2023-03-01T14:06:36.910Z,-0.80
2023-03-01T14:09:11.010Z,-0.60
2023-03-01T14:11:57.493Z,-0.60
2023-03-01T14:14:53.634Z,-0.30
2023-03-01T14:17:39.604Z,-0.90
2023-03-01T14:20:52.490Z,-1.10
2023-03-01T14:23:23.490Z,-1.30
2023-03-01T14:25:59.043Z,-1.20
2023-03-01T14:28:30.323Z,-0.90
2023-03-01T14:31:00.460Z,-1.00
2023-03-01T14:33:34.531Z,-1.00
2023-03-01T14:36:10.338Z,-1.00
2023-03-01T14:38:48.817Z,-0.70
2023-03-01T14:41:25.698Z,-0.80
2023-03-01T14:43:59.228Z,-0.90
2023-03-01T14:46:30.392Z,-1.20
2023-03-01T14:49:06.479Z,-1.30
2023-03-01T14:51:42.775Z,-1.30
2023-03-01T14:54:31.878Z,-1.10
2023-03-01T14:57:01.980Z,-1.50
2023-03-01T14:59:30.024Z,-1.40
2023-03-01T15:01:59.469Z,-1.30
2023-03-01T15:04:28.950Z,-1.50
2023-03-01T15:07:06.389Z,-1.50
2023-03-01T15:09:37.796Z,-1.00
2023-03-01T15:12:30.632Z,-0.90
2023-03-01T15:15:04.287Z,-1.20
2023-03-01T15:17:40.143Z,-1.10
2023-03-01T15:20:18.552Z,-1.10
2023-03-01T15:22:49.854Z,-1.40
2023-03-01T15:25:20.049Z,-1.10
2023-03-01T15:27:50.090Z,-1.50
2023-03-01T15:30:25.131Z,-1.30
2023-03-01T15:33:20.464Z,-1.40
2023-03-01T15:35:52.940Z,-1.20
2023-03-01T15:38:36.533Z,-1.50
2023-03-01T15:41:06.566Z,-1.60
2023-03-01T15:43:55.380Z,-1.70
2023-03-01T15:46:26.910Z,-1.50
2023-03-01T15:49:00.447Z,-1.30
2023-03-01T15:51:37.415Z,-1.30
2023-03-01T15:54:17.410Z,-1.50
2023-03-01T15:56:45.852Z,-1.20
2023-03-01T15:59:17.358Z,-1.10
2023-03-01T16:01:47.268Z,-1.20
2023-03-01T16:08:15.019Z,-1.40
2023-03-01T16:10:45.898Z,-1.50
2023-03-01T16:13:14.971Z,-1.30
2023-03-01T16:15:42.959Z,-1.20
2023-03-01T16:18:12.824Z,-1.50
2023-03-01T16:20:41.258Z,-1.70
2023-03-01T16:23:09.740Z,-1.60
2023-03-01T16:25:37.662Z,-1.70
2023-03-01T16:28:10.580Z,-1.60
2023-03-01T16:30:40.812Z,-1.30
2023-03-01T16:33:28.387Z,-1.40
2023-03-01T16:35:56.797Z,-1.50
2023-03-01T16:38:24.012Z,-1.60
2023-03-01T16:40:52.967Z,-1.70
2023-03-01T16:43:20.505Z,-1.50
2023-03-01T16:45:47.808Z,-1.50
2023-03-01T16:48:15.429Z,-1.40
2023-03-01T16:50:42.826Z,-1.50
2023-03-01T16:53:10.183Z,-1.50
2023-03-01T16:55:37.610Z,-1.70
2023-03-01T16:58:05.599Z,-1.30
2023-03-01T17:00:32.773Z,-1.20
2023-03-01T17:02:59.942Z,-1.40
2023-03-01T17:05:27.253Z,-3.40
2023-03-01T17:07:56.716Z,-1.30
2023-03-01T17:10:23.941Z,-1.40
2023-03-01T17:12:52.316Z,-1.50
2023-03-01T17:15:19.967Z,-1.60
2023-03-01T17:17:51.953Z,-1.60
2023-03-01T17:20:19.956Z,-1.40
2023-03-01T17:22:47.152Z,-1.30
2023-03-01T17:25:15.362Z,-1.20
2023-03-01T17:27:42.559Z,-1.50
2023-03-01T17:30:11.564Z,-1.40
2023-03-01T17:32:39.036Z,-1.70
2023-03-01T17:35:08.205Z,-1.60
2023-03-01T17:37:37.159Z,-1.50
2023-03-01T17:40:04.703Z,-1.60
2023-03-01T17:47:28.069Z,-1.30
2023-03-01T17:49:55.241Z,-1.40
2023-03-01T17:52:23.918Z,-1.60
2023-03-01T17:54:51.161Z,-3.00
2023-03-01T17:57:18.278Z,-1.50
2023-03-01T17:59:45.540Z,-1.70
2023-03-01T18:02:13.693Z,-1.70
2023-03-01T18:04:40.930Z,-1.70
2023-03-01T18:09:35.493Z,-1.60
2023-03-01T18:12:02.966Z,-1.50
2023-03-01T18:14:34.028Z,-1.40
2023-03-01T18:17:06.885Z,-1.50
2023-03-01T18:19:34.260Z,-1.60
2023-03-01T18:22:01.554Z,-1.60
2023-03-01T18:26:56.198Z,-1.60
2023-03-01T18:29:23.289Z,-1.60
2023-03-01T18:31:50.528Z,-1.60
2023-03-01T18:34:17.984Z,-1.40
2023-03-01T18:37:00.482Z,-1.40
2023-03-01T18:39:32.642Z,-1.50
2023-03-01T18:41:59.829Z,-1.50
2023-03-01T18:44:27.003Z,-1.40
2023-03-01T18:49:23.718Z,-1.50
2023-03-01T18:51:50.904Z,-1.40
2023-03-01T18:54:19.376Z,-1.70
2023-03-01T18:56:47.030Z,-1.70
2023-03-01T18:59:14.274Z,-1.50
2023-03-01T19:01:41.481Z,-1.80
2023-03-01T19:04:09.931Z,-1.70
2023-03-01T19:06:37.749Z,-1.60
2023-03-01T19:09:06.216Z,-1.80
2023-03-01T19:11:35.559Z,-1.60
2023-03-01T19:14:03.835Z,-1.90
2023-03-01T19:16:33.642Z,-1.80
2023-03-01T19:19:03.731Z,-1.50
2023-03-01T19:21:32.624Z,-1.20
2023-03-01T19:24:02.601Z,-1.60
2023-03-01T19:26:31.071Z,-1.80
2023-03-01T19:28:58.708Z,-1.50
2023-03-01T19:31:29.192Z,-1.60
2023-03-01T19:34:10.055Z,-1.50
2023-03-01T19:39:07.434Z,-1.70
2023-03-01T19:41:34.695Z,-1.60
2023-03-01T19:44:07.137Z,-1.60
2023-03-01T19:46:34.914Z,-1.80
2023-03-01T19:49:03.629Z,-1.70
2023-03-01T19:51:33.559Z,-1.90
2023-03-01T19:54:00.897Z,-1.80
2023-03-01T19:56:28.129Z,-1.70
2023-03-01T19:59:00.624Z,-1.70
2023-03-01T20:01:33.179Z,-1.80
2023-03-01T20:04:01.846Z,-1.80
2023-03-01T20:06:30.401Z,-1.80
2023-03-01T20:08:58.782Z,-1.90
2023-03-01T20:11:26.704Z,-1.60
2023-03-01T20:13:53.867Z,-1.70
2023-03-01T20:16:23.071Z,-2.00
2023-03-01T20:18:50.537Z,-2.00
2023-03-01T20:21:24.356Z,-1.80
2023-03-01T20:23:52.455Z,-1.70
2023-03-01T20:26:20.922Z,-1.70
2023-03-01T20:28:50.598Z,-1.60
2023-03-01T20:31:20.117Z,-1.50
2023-03-01T20:33:47.867Z,-1.70
2023-03-01T20:36:15.772Z,-1.60
2023-03-01T20:38:42.915Z,-1.60
2023-03-01T20:41:12.654Z,-1.80
2023-03-01T20:43:41.910Z,-1.90
2023-03-01T20:46:12.098Z,-1.60
2023-03-01T20:48:43.267Z,-1.50
2023-03-01T20:51:12.590Z,-1.40
2023-03-01T20:53:40.343Z,-1.90
2023-03-01T20:56:10.799Z,-1.80
2023-03-01T20:58:38.170Z,-2.20
2023-03-01T21:01:06.625Z,-1.90
2023-03-01T21:03:34.588Z,-1.70
2023-03-01T21:06:04.075Z,-1.80
2023-03-01T21:08:31.267Z,-2.10
2023-03-01T21:10:58.816Z,-2.10
2023-03-01T21:13:27.100Z,-2.20
2023-03-01T21:15:56.301Z,-2.30
2023-03-01T21:18:24.080Z,-2.30
2023-03-01T21:20:51.242Z,-2.10
2023-03-01T21:23:19.562Z,-1.90
2023-03-01T21:25:46.967Z,-1.80
2023-03-01T21:28:14.055Z,-2.10
2023-03-01T21:33:09.496Z,-2.20
2023-03-01T21:35:36.744Z,-2.20
2023-03-01T21:38:03.825Z,-2.10
2023-03-01T21:40:31.161Z,-1.90
2023-03-01T21:42:58.231Z,-1.90
2023-03-01T21:45:25.498Z,-1.90
2023-03-01T21:47:52.551Z,-1.80
2023-03-01T21:50:19.765Z,-1.80
2023-03-01T21:52:46.905Z,-1.70
2023-03-01T21:55:14.194Z,-2.00
2023-03-01T21:57:44.421Z,-1.90
2023-03-01T22:00:13.299Z,-2.20
2023-03-01T22:05:08.479Z,-2.10
2023-03-01T22:07:35.567Z,-1.80
2023-03-01T22:10:02.831Z,-1.70
2023-03-01T22:12:30.642Z,-1.70
2023-03-01T22:17:25.261Z,-1.90
2023-03-01T22:19:52.607Z,-1.70
2023-03-01T22:22:19.786Z,-1.70
2023-03-01T22:24:46.967Z,-1.80
2023-03-01T22:27:14.065Z,-1.80
2023-03-01T22:32:08.836Z,-1.70
2023-03-01T22:34:36.791Z,-1.60
2023-03-01T22:37:03.936Z,-1.70
2023-03-01T22:39:31.111Z,-1.80
2023-03-01T22:41:58.303Z,-1.80
2023-03-01T22:44:25.752Z,-1.80
2023-03-01T22:46:53.096Z,-1.90
2023-03-01T22:49:21.024Z,-1.80
2023-03-01T22:51:48.530Z,-1.90
2023-03-01T22:54:16.935Z,-1.90
2023-03-01T22:56:44.076Z,-2.00
2023-03-01T22:59:14.149Z,-2.00
2023-03-01T23:01:46.641Z,-1.80
2023-03-01T23:04:15.521Z,-1.90
2023-03-01T23:06:54.243Z,-1.70
2023-03-01T23:09:30.996Z,-1.80
2023-03-01T23:11:59.708Z,-1.70
2023-03-01T23:14:30.642Z,-1.70
2023-03-01T23:16:57.816Z,-1.80
2023-03-01T23:19:25.082Z,-1.70
2023-03-01T23:21:54.498Z,-2.10
2023-03-01T23:24:24.523Z,-2.00
2023-03-01T23:26:53.508Z,-1.90
2023-03-01T23:29:20.915Z,-2.10
2023-03-01T23:31:48.048Z,-1.90
2023-03-01T23:34:15.362Z,-1.90
2023-03-01T23:36:45.261Z,-2.00
2023-03-01T23:39:14.295Z,-2.00
2023-03-01T23:41:41.469Z,-1.90
2023-03-01T23:46:38.004Z,-2.10
2023-03-01T23:49:05.249Z,-2.30
2023-03-01T23:51:32.582Z,-2.30
2023-03-01T23:54:05.591Z,-2.40
2023-03-01T23:56:38.147Z,-2.20
2023-03-01T23:59:09.309Z,-2.10
